Portada
METAR-TAF:

METAR-TAF

Aeroports :

Vavaʻu, Tonga

latitud: 18-35-07S, longitud: 173-57-42W, altitud: 72 m

Observació

L'informe es va fer fa 5 hores i 48 minuts, a les 06:00 UTC
Temperatura 26°C
Humitat 84%
Pressió 1015 hPa
Visibilitat 10 km o més
Escasses núvols a una alçada de 900 ft
Núvols disperses a una alçada de 1700 ft

METAR: NFTV 030600Z 09008T 9999 FEW009 SCT017 26/23 Q1015

Hora: 00:48 (11:48 UTC)

Pronòstic

L'informe es va fer fa 38 minuts, a les 11:10 UTC
Pronòstic vàlid del 03 a les 12 UTC al 04 a les 12 UTC
Vent 10 kt del Est
Visibilitat 10 km o més
Escasses núvols a una alçada de 900 ft
Núvols disperses a una alçada de 1700 ft

TAF: NFTV 031110Z 0312/0412 10010KT 9999 FEW009 SCT017

Observacions i pronòstics meteorològics de més de 4000 aeroports (METAR i TAF).

Les estacions disponibles són els punts grocs i vermells al mapa.

Posi el ratolí al punt desitjat per veure el nom de l'estació.

Feu clic per veure les observacions i els pronòstics meteorològics.

Per canviar el mapa: feu clic els botons verds amb una creu de color negre per apropar; al botó verd amb un guió per allunyar la imatge; o en les fletxes verdes per a mapes adjacents.


METAR-TAF: